sensor_id;sensor_type;location;lat;lon;timestamp;temperature;humidity
21799;DHT22;24973;47.178;15.316;2023-03-20T21:24:12;8.30;99.90
21799;DHT22;24973;47.178;15.316;2023-03-20T21:27:19;8.00;99.90
21799;DHT22;24973;47.178;15.316;2023-03-20T21:30:09;7.80;99.90
21799;DHT22;24973;47.178;15.316;2023-03-20T21:32:59;7.70;99.90
21799;DHT22;24973;47.178;15.316;2023-03-20T21:35:49;7.60;99.90
21799;DHT22;24973;47.178;15.316;2023-03-20T21:38:39;7.60;99.90
21799;DHT22;24973;47.178;15.316;2023-03-20T21:41:48;7.50;99.90
21799;DHT22;24973;47.178;15.316;2023-03-20T21:44:39;7.50;99.90
21799;DHT22;24973;47.178;15.316;2023-03-20T21:47:47;7.30;99.90
21799;DHT22;24973;47.178;15.316;2023-03-20T21:50:56;7.30;99.90
21799;DHT22;24973;47.178;15.316;2023-03-20T21:54:04;7.30;99.90
21799;DHT22;24973;47.178;15.316;2023-03-20T21:57:13;7.50;99.90
21799;DHT22;24973;47.178;15.316;2023-03-20T22:00:25;7.60;99.90
21799;DHT22;24973;47.178;15.316;2023-03-20T22:03:33;7.60;99.90
21799;DHT22;24973;47.178;15.316;2023-03-20T22:06:42;7.60;99.90
21799;DHT22;24973;47.178;15.316;2023-03-20T22:09:51;7.50;99.90
21799;DHT22;24973;47.178;15.316;2023-03-20T22:13:00;7.40;99.90
21799;DHT22;24973;47.178;15.316;2023-03-20T22:16:10;7.20;99.90
21799;DHT22;24973;47.178;15.316;2023-03-20T22:19:22;7.10;99.90
21799;DHT22;24973;47.178;15.316;2023-03-20T22:22:30;7.10;99.90
21799;DHT22;24973;47.178;15.316;2023-03-20T22:25:39;7.10;99.90
21799;DHT22;24973;47.178;15.316;2023-03-20T22:28:48;7.20;99.90
21799;DHT22;24973;47.178;15.316;2023-03-20T22:31:59;7.10;99.90
21799;DHT22;24973;47.178;15.316;2023-03-20T22:35:08;6.90;99.90
21799;DHT22;24973;47.178;15.316;2023-03-20T22:38:17;6.90;99.90
21799;DHT22;24973;47.178;15.316;2023-03-20T22:41:27;6.80;99.90
21799;DHT22;24973;47.178;15.316;2023-03-20T22:44:36;6.70;99.90
21799;DHT22;24973;47.178;15.316;2023-03-20T22:47:46;6.70;99.90
21799;DHT22;24973;47.178;15.316;2023-03-20T22:50:35;6.70;99.90
21799;DHT22;24973;47.178;15.316;2023-03-20T22:53:24;6.60;99.90
21799;DHT22;24973;47.178;15.316;2023-03-20T22:56:13;6.40;99.90
21799;DHT22;24973;47.178;15.316;2023-03-20T22:59:02;6.40;99.90
21799;DHT22;24973;47.178;15.316;2023-03-20T23:01:51;6.40;99.90
21799;DHT22;24973;47.178;15.316;2023-03-20T23:04:41;6.40;99.90
21799;DHT22;24973;47.178;15.316;2023-03-20T23:07:29;6.40;99.90
21799;DHT22;24973;47.178;15.316;2023-03-20T23:10:19;6.30;99.90
21799;DHT22;24973;47.178;15.316;2023-03-20T23:13:11;6.30;99.90
21799;DHT22;24973;47.178;15.316;2023-03-20T23:16:00;6.30;99.90
21799;DHT22;24973;47.178;15.316;2023-03-20T23:18:48;6.30;99.90
21799;DHT22;24973;47.178;15.316;2023-03-20T23:21:39;6.30;99.90
21799;DHT22;24973;47.178;15.316;2023-03-20T23:24:27;6.40;99.90
21799;DHT22;24973;47.178;15.316;2023-03-20T23:27:17;6.40;99.90
21799;DHT22;24973;47.178;15.316;2023-03-20T23:30:07;6.30;99.90
21799;DHT22;24973;47.178;15.316;2023-03-20T23:32:57;6.40;99.90
21799;DHT22;24973;47.178;15.316;2023-03-20T23:35:45;6.40;99.90
21799;DHT22;24973;47.178;15.316;2023-03-20T23:38:37;6.40;99.90
21799;DHT22;24973;47.178;15.316;2023-03-20T23:41:25;6.30;99.90
21799;DHT22;24973;47.178;15.316;2023-03-20T23:44:34;6.30;99.90
21799;DHT22;24973;47.178;15.316;2023-03-20T23:47:25;6.30;99.90
21799;DHT22;24973;47.178;15.316;2023-03-20T23:50:24;6.10;99.90
21799;DHT22;24973;47.178;15.316;2023-03-20T23:53:22;6.00;99.90
21799;DHT22;24973;47.178;15.316;2023-03-20T23:56:13;6.00;99.90
21799;DHT22;24973;47.178;15.316;2023-03-20T23:59:01;6.00;99.90
